Time;durP1;ratioP1;P1;durP2;ratioP2;P2;SDS_P1;SDS_P2;PMS_P1;PMS_P2;Temp;Humidity;BMP_temperature;BMP_pressure;BME280_temperature;BME280_humidity;BME280_pressure;Samples;Min_cycle;Max_cycle;Signal;HPM_P1;HPM_P2
2021/12/19 00:04:55;;;;;;;4.05;1.70;;;;;;;-2.28;79.96;97399.34;4993502;28;20140;-63
2021/12/19 00:10:07;;;;;;;3.22;1.55;;;;;;;-2.33;79.86;97383.16;4990349;28;20054;-63
2021/12/19 00:12:34;;;;;;;5.20;1.60;;;;;;;-2.32;80.03;97376.59;4993656;28;20070;-63
2021/12/19 00:15:02;;;;;;;4.05;1.40;;;;;;;-2.29;79.97;97370.53;4993360;28;20078;-63
2021/12/19 00:17:29;;;;;;;2.63;1.50;;;;;;;-2.37;79.61;97367.72;4992373;28;20112;-63
2021/12/19 00:19:56;;;;;;;1.58;0.82;;;;;;;-2.40;79.97;97343.81;4993136;28;20486;-64
2021/12/19 00:22:43;;;;;;;4.13;1.42;;;;;;;-2.40;80.16;97336.44;4990530;28;20057;-64
2021/12/19 00:25:10;;;;;;;2.20;1.15;;;;;;;-2.40;80.25;97320.13;4992866;28;20137;-64
2021/12/19 00:27:37;;;;;;;1.90;1.23;;;;;;;-2.34;80.47;97320.84;4993219;28;20056;-63
2021/12/19 00:30:04;;;;;;;3.13;1.40;;;;;;;-2.24;80.29;97309.72;4993006;28;20049;-65
2021/12/19 00:32:31;;;;;;;2.17;1.33;;;;;;;-2.26;80.23;97309.22;4993131;28;20050;-64
2021/12/19 00:34:58;;;;;;;2.92;1.40;;;;;;;-2.30;80.64;97300.88;4991799;28;20056;-63
2021/12/19 00:37:25;;;;;;;5.85;1.30;;;;;;;-2.30;80.55;97291.88;4992299;28;20097;-63
2021/12/19 00:39:52;;;;;;;3.17;1.60;;;;;;;-2.28;81.24;97279.56;4993173;28;20060;-64
2021/12/19 00:42:31;;;;;;;4.75;2.42;;;;;;;-2.26;80.70;97269.19;4990708;28;20084;-63
2021/12/19 00:45:01;;;;;;;10.35;5.18;;;;;;;-2.23;80.77;97257.69;4992644;28;20117;-63
2021/12/19 00:47:29;;;;;;;6.93;3.05;;;;;;;-2.23;80.61;97251.41;4991904;28;20046;-63
2021/12/19 00:49:56;;;;;;;5.70;3.03;;;;;;;-2.23;80.77;97244.06;4993259;28;20145;-63
2021/12/19 00:52:41;;;;;;;5.20;2.47;;;;;;;-2.24;80.96;97226.13;4992758;28;20053;-64
2021/12/19 00:55:09;;;;;;;8.13;2.88;;;;;;;-2.17;81.13;97229.22;4992252;28;20058;-63
2021/12/19 00:57:36;;;;;;;6.30;2.45;;;;;;;-2.24;80.76;97220.69;4989059;28;20046;-64
2021/12/19 01:00:06;;;;;;;5.85;2.88;;;;;;;-2.26;80.76;97216.63;4992354;28;20132;-64
2021/12/19 01:02:34;;;;;;;6.20;2.73;;;;;;;-2.33;81.04;97206.19;4974973;28;20641;-64
2021/12/19 01:05:03;;;;;;;5.03;2.60;;;;;;;-2.36;80.86;97185.03;4990979;28;20131;-64
2021/12/19 01:07:30;;;;;;;4.65;2.25;;;;;;;-2.31;81.07;97179.44;4991315;28;20513;-64
2021/12/19 01:09:57;;;;;;;2.95;1.83;;;;;;;-2.20;81.33;97175.38;4992646;28;20053;-63
2021/12/19 01:12:25;;;;;;;4.22;2.15;;;;;;;-2.17;81.33;97147.53;4992415;28;20053;-63
2021/12/19 01:14:53;;;;;;;9.55;2.45;;;;;;;-2.17;81.25;97142.09;4992873;28;20038;-63
2021/12/19 01:17:20;;;;;;;5.63;2.35;;;;;;;-2.14;81.11;97148.81;4991719;28;20060;-63
2021/12/19 01:19:47;;;;;;;7.93;2.60;;;;;;;-2.15;81.23;97126.25;4992949;28;20110;-63
2021/12/19 01:22:15;;;;;;;4.88;2.13;;;;;;;-2.14;81.24;97133.31;4997241;28;20405;-64
2021/12/19 01:24:42;;;;;;;4.78;1.38;;;;;;;-2.13;81.28;97118.56;4996948;28;20046;-64
2021/12/19 01:27:10;;;;;;;6.93;2.13;;;;;;;-2.21;80.85;97110.34;4998615;28;20498;-64
2021/12/19 01:29:37;;;;;;;32.22;8.52;;;;;;;-2.25;80.97;97098.47;4998800;28;20141;-62
2021/12/19 01:32:04;;;;;;;3.47;1.80;;;;;;;-2.24;81.10;97089.19;4998535;28;20169;-62
2021/12/19 01:34:31;;;;;;;2.67;1.58;;;;;;;-2.25;81.24;97090.31;4999220;28;20046;-62
2021/12/19 01:36:58;;;;;;;2.28;1.35;;;;;;;-2.28;81.03;97078.09;4995237;28;20120;-62
2021/12/19 01:39:25;;;;;;;2.80;1.50;;;;;;;-2.21;81.16;97066.78;4999145;28;20662;-62
2021/12/19 01:41:55;;;;;;;2.83;1.30;;;;;;;-2.19;81.45;97057.19;4997011;28;20057;-59
2021/12/19 01:44:23;;;;;;;1.95;1.10;;;;;;;-2.10;81.16;97060.75;4998479;28;20104;-57
2021/12/19 01:46:51;;;;;;;2.63;1.25;;;;;;;-2.11;81.27;97045.53;4997467;28;20058;-59
2021/12/19 01:49:21;;;;;;;2.78;1.08;;;;;;;-2.15;81.28;97025.50;4995726;28;20140;-58
2021/12/19 01:51:48;;;;;;;2.42;1.08;;;;;;;-2.15;81.27;97016.53;4998779;28;20089;-58
2021/12/19 01:54:15;;;;;;;2.08;1.23;;;;;;;-2.10;81.38;97009.00;4996893;28;20047;-63
2021/12/19 01:56:42;;;;;;;2.53;1.30;;;;;;;-2.05;81.72;97019.78;4997304;28;20078;-63
2021/12/19 01:59:10;;;;;;;2.03;1.20;;;;;;;-2.06;81.23;96993.69;4998556;28;20129;-63
2021/12/19 02:01:53;;;;;;;2.63;1.38;;;;;;;-2.04;81.46;96991.41;4998795;28;20089;-64
2021/12/19 02:04:22;;;;;;;3.65;1.30;;;;;;;-2.04;81.53;96993.38;4994779;28;20054;-63
2021/12/19 02:06:50;;;;;;;2.60;1.40;;;;;;;-2.04;81.44;96972.34;4998774;28;20058;-64
2021/12/19 02:09:17;;;;;;;3.08;1.02;;;;;;;-2.02;81.21;96964.69;4997925;28;20584;-55
2021/12/19 02:11:45;;;;;;;2.95;1.20;;;;;;;-2.02;81.22;96951.06;4998365;28;20050;-53
2021/12/19 02:14:12;;;;;;;4.32;1.23;;;;;;;-2.01;81.39;96939.03;4997025;28;20058;-57
2021/12/19 02:16:40;;;;;;;2.38;1.20;;;;;;;-2.08;80.71;96919.66;4998682;28;20440;-57
2021/12/19 02:19:09;;;;;;;2.92;1.27;;;;;;;-2.06;80.98;96928.31;4998065;28;20137;-57
2021/12/19 02:21:37;;;;;;;2.25;1.20;;;;;;;-2.07;81.09;96918.53;4998562;28;20232;-57
2021/12/19 02:24:07;;;;;;;3.78;1.30;;;;;;;-2.07;81.13;96907.63;4997702;28;20477;-58
2021/12/19 02:26:36;;;;;;;1.15;0.75;;;;;;;-2.06;81.19;96906.53;4998256;28;20072;-58
2021/12/19 02:29:04;;;;;;;2.85;1.30;;;;;;;-2.10;81.31;96893.88;4997766;28;20057;-58
2021/12/19 02:31:31;;;;;;;1.80;1.02;;;;;;;-2.08;81.61;96888.88;4996985;28;20460;-55
2021/12/19 02:34:05;;;;;;;1.25;0.88;;;;;;;-2.04;81.18;96892.59;4994520;28;20058;-59
2021/12/19 02:49:58;;;;;;;1.70;1.02;;;;;;;-1.99;81.14;96818.91;4994142;28;20124;-57
2021/12/19 02:52:25;;;;;;;1.92;1.10;;;;;;;-1.99;81.11;96810.72;4994237;28;20065;-58
2021/12/19 02:54:52;;;;;;;2.50;1.33;;;;;;;-1.98;81.42;96807.69;4994872;28;20097;-58
2021/12/19 02:57:19;;;;;;;1.42;1.00;;;;;;;-1.94;81.18;96808.66;4994563;28;20050;-56
2021/12/19 02:59:46;;;;;;;2.45;1.25;;;;;;;-1.87;81.00;96800.00;4995080;28;20539;-58
2021/12/19 03:02:13;;;;;;;2.60;1.30;;;;;;;-1.84;80.88;96784.97;4992434;28;20107;-57
2021/12/19 03:04:52;;;;;;;2.72;1.48;;;;;;;-1.83;80.71;96779.97;4994756;28;20473;-58
2021/12/19 03:07:19;;;;;;;3.35;1.52;;;;;;;-1.83;80.58;96778.38;4993532;28;20048;-58
2021/12/19 03:18:06;;;;;;;2.47;1.30;;;;;;;-1.87;80.45;96751.78;4994331;28;20076;-58
2021/12/19 03:20:35;;;;;;;2.42;1.30;;;;;;;-1.90;80.32;96736.09;4994783;28;20528;-57
2021/12/19 03:23:03;;;;;;;2.22;1.35;;;;;;;-1.91;80.33;96734.50;4993298;28;20143;-55
2021/12/19 03:25:31;;;;;;;2.88;1.50;;;;;;;-1.83;80.16;96735.59;4994708;28;20050;-62
2021/12/19 03:28:00;;;;;;;3.60;1.50;;;;;;;-1.83;80.01;96729.34;4994234;28;20573;-64
2021/12/19 03:30:31;;;;;;;4.70;1.52;;;;;;;-1.83;80.25;96729.34;4994734;28;20462;-62
2021/12/19 03:32:58;;;;;;;;;;;;;;;-1.83;80.03;96729.34;4994291;28;20046;-64
2021/12/19 03:35:25;;;;;;;2.53;1.17;;;;;;;-1.83;80.05;96715.72;4994198;28;19972;-63
2021/12/19 03:37:52;;;;;;;2.17;1.13;;;;;;;-1.83;80.09;96711.88;4991852;28;20449;-64
2021/12/19 03:40:34;;;;;;;2.63;1.13;;;;;;;-1.86;79.96;96709.78;4994580;28;20050;-63
2021/12/19 03:43:06;;;;;;;2.17;1.27;;;;;;;-1.83;80.17;96695.53;4993578;28;20042;-59
2021/12/19 03:45:34;;;;;;;2.78;1.33;;;;;;;-1.79;80.10;96701.13;4993317;28;20108;-64
2021/12/19 03:48:03;;;;;;;1.70;1.13;;;;;;;-1.77;80.19;96689.91;4991927;28;20097;-63
2021/12/19 03:50:33;;;;;;;2.35;1.35;;;;;;;-1.76;79.99;96677.88;4992548;28;20058;-63
2021/12/19 03:53:00;;;;;;;2.42;1.23;;;;;;;-1.72;80.13;96692.47;4994057;28;20305;-63
2021/12/19 03:55:27;;;;;;;2.38;1.42;;;;;;;-1.72;80.33;96673.41;4994350;28;20449;-63
2021/12/19 03:57:57;;;;;;;3.58;1.08;;;;;;;-1.71;79.91;96666.81;4993249;28;20399;-64
2021/12/19 04:00:26;;;;;;;3.30;1.23;;;;;;;-1.69;79.94;96659.13;4993342;28;20042;-64
2021/12/19 04:02:57;;;;;;;3.53;1.60;;;;;;;-1.67;79.58;96654.97;4991751;28;20137;-64
2021/12/19 04:05:26;;;;;;;2.55;1.20;;;;;;;-1.69;79.76;96642.78;4993839;28;20050;-64
2021/12/19 04:07:54;;;;;;;2.78;1.33;;;;;;;-1.67;79.64;96640.53;4993025;28;20054;-64
2021/12/19 04:10:22;;;;;;;2.67;1.35;;;;;;;-1.66;79.66;96625.78;4992259;28;20072;-63
2021/12/19 04:12:50;;;;;;;2.00;1.10;;;;;;;-1.65;79.70;96616.47;4992793;28;20042;-63
2021/12/19 04:15:17;;;;;;;3.97;1.33;;;;;;;-1.66;79.63;96614.91;4993547;28;20076;-64
2021/12/19 04:17:44;;;;;;;7.20;1.40;;;;;;;-1.67;79.59;96607.81;4993060;28;20403;-56
2021/12/19 04:20:11;;;;;;;2.60;1.30;;;;;;;-1.64;79.52;96605.25;4993758;28;20060;-55
2021/12/19 04:22:38;;;;;;;3.47;1.40;;;;;;;-1.60;79.43;96597.25;4991451;28;20108;-58
2021/12/19 04:25:06;;;;;;;2.95;1.35;;;;;;;-1.61;79.29;96592.91;4989845;28;20417;-56
2021/12/19 04:27:34;;;;;;;2.70;1.42;;;;;;;-1.59;79.47;96594.19;4993070;28;20133;-57
2021/12/19 04:30:01;;;;;;;2.22;1.20;;;;;;;-1.57;79.44;96585.69;4993203;28;20153;-55
2021/12/19 04:32:33;;;;;;;3.85;1.38;;;;;;;-1.57;79.22;96574.78;4993507;28;20410;-56
2021/12/19 04:35:01;;;;;;;4.25;1.52;;;;;;;-1.56;79.36;96581.81;4991506;28;20445;-57
2021/12/19 04:44:09;;;;;;;3.00;1.42;;;;;;;-1.57;79.15;96558.44;4992664;28;20089;-58
2021/12/19 04:53:37;;;;;;;2.83;1.52;;;;;;;-1.47;79.06;96538.97;4993002;28;20137;-55
2021/12/19 04:57:00;;;;;;;2.30;1.40;;;;;;;-1.44;78.52;96541.03;4990710;28;20070;-62
2021/12/19 05:02:01;;;;;;;2.42;1.42;;;;;;;-1.42;78.61;96534.13;4990850;28;20068;-61
2021/12/19 05:15:24;;;;;;;3.05;1.67;;;;;;;-1.37;78.57;96489.53;4992638;28;20050;-62
2021/12/19 05:17:54;;;;;;;3.08;1.60;;;;;;;-1.35;78.20;96490.81;4992372;28;20058;-61
2021/12/19 05:20:25;;;;;;;2.53;1.42;;;;;;;-1.33;78.07;96472.19;4988206;28;20740;-61
2021/12/19 05:22:57;;;;;;;2.80;1.52;;;;;;;-1.31;78.17;96478.09;4991057;28;20046;-61
2021/12/19 05:25:25;;;;;;;3.35;1.80;;;;;;;-1.31;78.17;96474.56;4987859;28;20561;-62
2021/12/19 05:27:54;;;;;;;5.20;1.45;;;;;;;-1.29;78.17;96478.59;4992133;28;20061;-61
2021/12/19 05:30:24;;;;;;;5.95;1.80;;;;;;;-1.27;78.16;96479.06;4992231;28;20133;-62
2021/12/19 05:32:53;;;;;;;2.28;1.25;;;;;;;-1.24;78.25;96475.66;4991990;28;20133;-61
2021/12/19 05:35:32;;;;;;;2.57;1.43;;;;;;;-1.23;78.02;96476.44;4991353;28;20061;-61
2021/12/19 05:46:18;;;;;;;2.67;1.58;;;;;;;-1.16;78.24;96457.66;4992048;28;20054;-60
2021/12/19 05:48:45;;;;;;;4.78;2.00;;;;;;;-1.15;77.73;96451.06;4990363;28;20144;-61
2021/12/19 05:51:11;;;;;;;4.50;1.50;;;;;;;-1.12;77.93;96451.19;4992154;28;20042;-61
2021/12/19 05:53:39;;;;;;;4.65;1.73;;;;;;;-1.09;77.91;96436.91;4990973;28;20054;-61
2021/12/19 05:56:06;;;;;;;4.10;1.88;;;;;;;-1.05;77.74;96439.72;4992136;28;20506;-61
2021/12/19 05:58:33;;;;;;;3.25;1.40;;;;;;;-1.03;77.81;96441.00;4991711;28;20058;-62
2021/12/19 06:01:00;;;;;;;4.57;1.63;;;;;;;-1.00;77.66;96428.63;4991959;28;20050;-63
2021/12/19 06:03:27;;;;;;;3.70;1.35;;;;;;;-0.99;77.25;96432.94;4990362;28;20081;-63
2021/12/19 06:05:54;;;;;;;4.25;1.27;;;;;;;-0.99;77.14;96428.28;4991920;28;20046;-63
2021/12/19 06:08:21;;;;;;;3.30;1.50;;;;;;;-0.99;77.55;96419.31;4993238;28;20654;-63
2021/12/19 06:10:48;;;;;;;7.18;1.48;;;;;;;-0.98;77.48;96415.47;4996154;28;20146;-64
2021/12/19 06:13:15;;;;;;;3.25;1.40;;;;;;;-0.97;77.45;96408.88;4995693;28;20054;-63
2021/12/19 06:15:42;;;;;;;2.47;1.48;;;;;;;-0.94;77.70;96405.47;4995881;28;20058;-64
2021/12/19 06:18:08;;;;;;;6.18;1.50;;;;;;;-0.93;77.47;96407.06;4995268;28;20133;-63
2021/12/19 06:20:36;;;;;;;2.92;1.58;;;;;;;-0.91;77.24;96402.06;4995606;28;20050;-64
2021/12/19 06:23:03;;;;;;;2.47;1.50;;;;;;;-0.91;77.26;96402.88;4995171;28;20042;-63
2021/12/19 06:25:29;;;;;;;2.83;1.42;;;;;;;-0.90;76.97;96393.56;4996161;28;20375;-63
2021/12/19 06:27:56;;;;;;;5.10;1.95;;;;;;;-0.86;76.99;96394.47;4995431;28;20050;-64
2021/12/19 06:30:23;;;;;;;6.53;1.90;;;;;;;-0.83;77.08;96393.00;4995633;28;20145;-63
2021/12/19 06:32:50;;;;;;;5.40;1.85;;;;;;;-0.81;77.35;96386.06;4994214;28;20054;-63
2021/12/19 06:35:18;;;;;;;2.92;1.58;;;;;;;-0.79;77.06;96383.81;4994778;28;20430;-58
2021/12/19 06:37:46;;;;;;;2.05;1.20;;;;;;;-0.81;76.89;96374.34;4993455;28;20536;-60
2021/12/19 06:40:19;;;;;;;2.78;1.40;;;;;;;-0.78;76.85;96373.69;4995226;28;20054;-58
2021/12/19 06:42:47;;;;;;;2.53;1.63;;;;;;;-0.76;76.97;96372.22;4995263;28;20050;-59
2021/12/19 06:45:17;;;;;;;5.97;2.00;;;;;;;-0.74;77.09;96363.72;4994459;28;20521;-55
2021/12/19 06:47:44;;;;;;;5.75;2.00;;;;;;;-0.73;77.23;96359.84;4995164;28;20078;-56
2021/12/19 06:50:12;;;;;;;2.90;1.77;;;;;;;-0.72;76.93;96355.97;4993741;28;20046;-58
2021/12/19 06:52:40;;;;;;;3.25;1.58;;;;;;;-0.70;77.28;96359.16;4994805;28;20054;-58
2021/12/19 06:55:09;;;;;;;3.03;1.60;;;;;;;-0.70;77.14;96349.06;4994701;28;20133;-58
2021/12/19 06:57:37;;;;;;;3.10;1.50;;;;;;;-0.72;76.95;96345.03;4994770;28;20054;-59
2021/12/19 07:00:10;;;;;;;5.43;1.65;;;;;;;-0.67;76.77;96344.84;4994667;28;20593;-58
2021/12/19 07:02:37;;;;;;;7.95;1.95;;;;;;;-0.66;76.92;96343.69;4984521;28;20133;-57
2021/12/19 07:05:04;;;;;;;3.97;1.83;;;;;;;-0.67;76.93;96342.91;4994342;28;20077;-56
2021/12/19 07:07:31;;;;;;;3.88;1.90;;;;;;;-0.64;76.88;96344.16;4994559;28;20067;-57
2021/12/19 07:09:59;;;;;;;4.40;1.80;;;;;;;-0.65;77.15;96339.84;4994447;28;20056;-58
2021/12/19 07:12:26;;;;;;;6.22;1.98;;;;;;;-0.64;76.92;96333.25;4990994;28;20136;-60
2021/12/19 07:14:55;;;;;;;5.68;1.73;;;;;;;-0.65;77.07;96335.16;4994184;28;20081;-57
2021/12/19 07:17:22;;;;;;;7.35;3.65;;;;;;;-0.65;76.69;96335.16;4994656;28;20054;-59
2021/12/19 07:19:50;;;;;;;7.40;2.13;;;;;;;-0.67;77.22;96328.47;4994754;28;20082;-59
2021/12/19 07:22:18;;;;;;;5.43;2.00;;;;;;;-0.63;76.80;96327.44;4994154;28;20085;-58
2021/12/19 07:24:45;;;;;;;4.40;1.92;;;;;;;-0.65;77.04;96318.00;4991772;28;20054;-57
2021/12/19 07:27:13;;;;;;;5.88;2.13;;;;;;;-0.60;77.17;96323.22;4994578;28;20085;-57
2021/12/19 07:29:41;;;;;;;4.97;1.85;;;;;;;-0.58;77.23;96318.25;4994141;28;20058;-56
2021/12/19 07:32:10;;;;;;;10.05;2.10;;;;;;;-0.57;77.35;96311.63;4994274;28;20050;-59
2021/12/19 07:34:38;;;;;;;3.53;1.67;;;;;;;-0.58;77.07;96308.13;4994242;28;20140;-63
2021/12/19 07:37:05;;;;;;;5.70;2.40;;;;;;;-0.56;77.49;96305.06;4991864;28;20533;-62
2021/12/19 07:42:04;;;;;;;6.38;2.53;;;;;;;-0.56;77.50;96305.06;4993772;28;20054;-58
2021/12/19 07:44:31;;;;;;;6.78;2.15;;;;;;;-0.56;77.59;96299.59;4993787;28;20066;-57
2021/12/19 07:46:58;;;;;;;4.80;1.95;;;;;;;-0.57;77.14;96289.78;4993823;28;20054;-60
2021/12/19 07:49:25;;;;;;;4.82;1.63;;;;;;;-0.56;77.52;96288.69;4990706;28;20054;-57
2021/12/19 07:51:52;;;;;;;3.85;2.10;;;;;;;-0.53;77.30;96288.00;4992520;28;20053;-58
2021/12/19 07:54:19;;;;;;;6.65;1.98;;;;;;;-0.53;77.76;96288.00;4993768;28;20050;-59
2021/12/19 07:56:46;;;;;;;5.20;2.65;;;;;;;-0.54;77.91;96292.66;4993687;28;20057;-59
2021/12/19 07:59:14;;;;;;;4.72;2.00;;;;;;;-0.50;77.60;96290.06;4990132;28;20413;-59
2021/12/19 08:01:41;;;;;;;2.50;1.63;;;;;;;-0.52;78.03;96282.19;4993593;28;20060;-60
2021/12/19 08:04:08;;;;;;;6.78;1.90;;;;;;;-0.52;77.88;96278.66;4992318;28;20101;-59
2021/12/19 08:06:35;;;;;;;6.70;2.25;;;;;;;-0.53;77.89;96277.84;4993805;28;20069;-57
2021/12/19 08:09:20;;;;;;;5.47;1.92;;;;;;;-0.52;78.12;96265.00;4993405;28;20501;-56
2021/12/19 08:11:47;;;;;;;4.22;1.67;;;;;;;-0.49;78.15;96275.25;4992999;28;20081;-58
2021/12/19 08:14:15;;;;;;;4.65;1.92;;;;;;;-0.49;78.23;96267.88;4993507;28;20050;-57
2021/12/19 08:16:45;;;;;;;5.22;2.20;;;;;;;-0.48;77.78;96269.44;4993579;28;20054;-61
2021/12/19 08:19:12;;;;;;;4.00;1.70;;;;;;;-0.47;78.01;96259.34;4990849;28;20125;-58
2021/12/19 08:21:39;;;;;;;2.97;1.73;;;;;;;-0.48;78.21;96258.53;4993245;28;20054;-57
2021/12/19 08:24:10;;;;;;;6.78;2.03;;;;;;;-0.47;78.16;96253.88;4989449;28;20065;-58
2021/12/19 08:26:39;;;;;;;9.38;2.08;;;;;;;-0.47;78.20;96243.72;4993140;28;20096;-59
2021/12/19 08:29:08;;;;;;;;;;;;;;;-0.47;78.38;96251.94;4993485;28;20054;-59
2021/12/19 08:31:36;;;;;;;5.85;2.80;;;;;;;-0.45;78.41;96246.94;4991965;28;20365;-59
2021/12/19 08:34:02;;;;;;;8.68;2.50;;;;;;;-0.42;78.67;96254.44;4992656;28;20046;-58
2021/12/19 08:36:29;;;;;;;8.07;2.20;;;;;;;-0.41;78.72;96253.28;4992097;28;20129;-58
2021/12/19 08:38:57;;;;;;;5.32;2.30;;;;;;;-0.39;78.04;96240.09;4992444;28;20042;-58
2021/12/19 08:41:25;;;;;;;5.80;2.00;;;;;;;-0.38;78.72;96244.41;4993145;28;20085;-59
2021/12/19 08:43:51;;;;;;;8.68;2.15;;;;;;;-0.35;78.39;96237.50;4991982;28;20150;-58
2021/12/19 08:46:18;;;;;;;3.40;2.00;;;;;;;-0.36;78.43;96238.59;4993172;28;20054;-60
2021/12/19 08:48:45;;;;;;;7.00;2.03;;;;;;;-0.36;78.78;96238.59;4990878;28;20054;-60
2021/12/19 08:51:12;;;;;;;3.65;1.90;;;;;;;-0.35;78.85;96234.75;4992896;28;20050;-60
2021/12/19 08:53:39;;;;;;;8.10;2.30;;;;;;;-0.33;78.92;96222.34;4992343;28;20053;-59
2021/12/19 08:56:06;;;;;;;3.50;2.10;;;;;;;-0.31;79.04;96228.28;4992677;28;20050;-64
2021/12/19 08:58:33;;;;;;;6.88;2.05;;;;;;;-0.28;79.24;96229.50;4992576;28;20054;-64
2021/12/19 09:01:01;;;;;;;6.28;2.10;;;;;;;-0.29;78.94;96223.25;4991222;28;20069;-65
2021/12/19 09:03:30;;;;;;;4.15;2.33;;;;;;;-0.26;79.29;96213.59;4992625;28;20101;-64
2021/12/19 09:05:58;;;;;;;3.78;2.08;;;;;;;-0.26;79.13;96203.44;4993036;28;20058;-64
2021/12/19 09:08:26;;;;;;;5.38;2.58;;;;;;;-0.26;79.22;96205.38;4992895;28;20077;-64
2021/12/19 09:10:54;;;;;;;5.07;2.33;;;;;;;-0.25;79.13;96212.44;4991846;28;20074;-64
2021/12/19 09:13:21;;;;;;;10.68;2.42;;;;;;;-0.25;79.39;96212.44;4991330;28;20513;-65
2021/12/19 09:15:49;;;;;;;4.03;2.17;;;;;;;-0.24;79.36;96203.09;4991881;28;20050;-66
2021/12/19 09:18:17;;;;;;;12.48;2.67;;;;;;;-0.23;79.20;96204.69;4992284;28;20050;-64
2021/12/19 09:20:44;;;;;;;8.38;2.05;;;;;;;-0.23;79.53;96202.75;4991806;28;20050;-64
2021/12/19 09:23:11;;;;;;;4.07;2.05;;;;;;;-0.22;79.51;96200.81;4992807;28;20137;-64
2021/12/19 09:25:39;;;;;;;9.02;2.78;;;;;;;-0.21;79.26;96199.66;4992371;28;20058;-64
2021/12/19 09:28:06;;;;;;;5.72;2.08;;;;;;;-0.22;79.35;96198.91;4992596;28;20152;-65
2021/12/19 09:30:34;;;;;;;4.00;2.10;;;;;;;-0.22;79.39;96201.63;4992350;28;20054;-64
2021/12/19 09:33:01;;;;;;;8.77;1.73;;;;;;;-0.23;79.24;96197.28;4991911;28;20476;-65
2021/12/19 09:35:29;;;;;;;6.22;1.80;;;;;;;-0.21;79.33;96189.56;4989894;28;20046;-65
2021/12/19 09:37:56;;;;;;;4.07;1.67;;;;;;;-0.20;79.55;96193.09;4992310;28;20050;-64
2021/12/19 09:40:32;;;;;;;13.82;1.88;;;;;;;-0.23;79.23;96183.63;4992088;28;20089;-65
2021/12/19 09:43:04;;;;;;;2.78;1.48;;;;;;;-0.19;79.19;96189.22;4991775;28;20050;-63
2021/12/19 09:45:32;;;;;;;5.65;1.65;;;;;;;-0.22;79.41;96185.25;4995839;28;20066;-64
2021/12/19 09:48:00;;;;;;;4.35;2.03;;;;;;;-0.20;79.36;96182.16;4995994;28;20096;-64
2021/12/19 09:50:29;;;;;;;5.95;1.52;;;;;;;-0.20;79.63;96173.97;4994066;28;20054;-64
2021/12/19 09:52:56;;;;;;;3.05;1.48;;;;;;;-0.22;79.58;96170.78;5007401;28;20050;-64
2021/12/19 09:55:28;;;;;;;4.13;1.60;;;;;;;-0.21;79.58;96175.91;4995819;28;20062;-64
2021/12/19 09:57:55;;;;;;;7.03;1.77;;;;;;;-0.22;79.63;96168.03;4995231;28;20057;-64
2021/12/19 10:00:22;;;;;;;4.00;1.92;;;;;;;-0.21;79.47;96164.16;4995539;28;20054;-65
2021/12/19 10:02:49;;;;;;;4.10;1.20;;;;;;;-0.20;79.52;96176.69;4995875;28;20528;-64
2021/12/19 10:05:27;;;;;;;5.82;1.58;;;;;;;-0.19;79.52;96156.44;4994482;28;20056;-64
2021/12/19 10:07:57;;;;;;;37.35;12.68;;;;;;;-0.19;79.62;96157.25;4995857;28;20501;-65
2021/12/19 10:10:45;;;;;;;3.88;2.50;;;;;;;-0.17;79.17;96157.66;4995154;28;20050;-65
2021/12/19 10:13:12;;;;;;;10.73;1.77;;;;;;;-0.17;79.24;96148.69;4994085;28;20149;-64
2021/12/19 10:15:43;;;;;;;5.78;1.65;;;;;;;-0.12;79.01;96145.69;4995385;28;20054;-64
2021/12/19 10:18:17;;;;;;;4.93;1.50;;;;;;;-0.11;79.47;96136.38;4995690;28;20081;-65
2021/12/19 10:20:45;;;;;;;3.55;2.00;;;;;;;-0.07;79.41;96132.63;4995033;28;20046;-64
2021/12/19 10:23:17;;;;;;;2.55;1.25;;;;;;;-0.08;79.40;96130.22;4993976;28;20529;-66
2021/12/19 10:25:53;;;;;;;2.33;1.30;;;;;;;-0.06;79.10;96130.66;4995126;28;20162;-64
2021/12/19 10:28:22;;;;;;;2.55;1.10;;;;;;;-0.07;79.46;96129.06;4995140;28;20057;-65
2021/12/19 10:30:49;;;;;;;5.75;1.58;;;;;;;-0.06;79.34;96123.25;4994424;28;20054;-65
2021/12/19 10:33:18;;;;;;;8.13;3.05;;;;;;;0.01;79.10;96122.69;4995220;28;20057;-64
2021/12/19 10:35:57;;;;;;;4.80;1.75;;;;;;;0.07;78.86;96118.56;4993046;28;20430;-64
2021/12/19 10:38:27;;;;;;;3.15;1.42;;;;;;;0.09;78.98;96110.81;4995050;28;20528;-65
2021/12/19 10:41:06;;;;;;;4.30;1.13;;;;;;;0.09;79.17;96112.75;4993805;28;20042;-64
2021/12/19 10:43:34;;;;;;;6.57;1.27;;;;;;;0.07;79.43;96115.81;4995092;28;20152;-65
2021/12/19 10:46:04;;;;;;;5.38;3.05;;;;;;;0.08;79.10;96106.47;4995175;28;20081;-64
2021/12/19 10:48:39;;;;;;;5.80;1.38;;;;;;;0.10;79.31;96108.84;4995043;28;20093;-64
2021/12/19 10:51:07;;;;;;;3.80;1.00;;;;;;;0.07;79.52;96110.34;4994381;28;20171;-64
2021/12/19 10:53:37;;;;;;;2.28;1.60;;;;;;;0.07;78.98;96104.91;4994177;28;20045;-64
2021/12/19 10:56:12;;;;;;;2.38;1.13;;;;;;;0.06;79.24;96107.97;4994260;28;20390;-64
2021/12/19 10:58:44;;;;;;;0.95;0.73;;;;;;;0.03;79.09;96104.78;4994722;28;20054;-65
2021/12/19 11:01:20;;;;;;;5.03;1.50;;;;;;;-0.02;79.12;96120.63;4994490;28;20169;-65
2021/12/19 11:03:53;;;;;;;3.25;2.15;;;;;;;-0.01;79.42;96109.38;4994993;28;20112;-64
2021/12/19 11:06:28;;;;;;;5.75;2.30;;;;;;;-0.01;79.15;96105.84;4992993;28;20057;-64
2021/12/19 11:08:58;;;;;;;4.15;2.28;;;;;;;0.02;79.17;96102.41;4994681;28;20490;-63
2021/12/19 11:11:42;;;;;;;11.45;1.95;;;;;;;0.06;78.83;96103.31;4991310;28;20152;-60
2021/12/19 11:14:15;;;;;;;9.95;1.65;;;;;;;0.00;78.99;96110.94;4994080;28;20479;-60
2021/12/19 11:16:43;;;;;;;7.45;1.73;;;;;;;-0.04;79.61;96103.78;4994961;28;20450;-60
2021/12/19 11:19:11;;;;;;;4.55;1.80;;;;;;;-0.04;79.38;96110.06;4994068;28;20137;-62
2021/12/19 11:21:38;;;;;;;2.50;1.40;;;;;;;-0.03;79.54;96105.38;4994272;28;20060;-59
2021/12/19 11:24:11;;;;;;;2.28;1.23;;;;;;;0.02;79.37;96107.09;4990571;28;20054;-61
2021/12/19 11:26:41;;;;;;;5.35;1.95;;;;;;;0.00;79.43;96105.47;4994699;28;20050;-60
2021/12/19 11:29:09;;;;;;;4.70;1.80;;;;;;;0.05;79.24;96112.63;4993730;28;20077;-60
2021/12/19 11:31:38;;;;;;;3.42;1.83;;;;;;;0.06;79.20;96110.72;4994414;28;20054;-60
2021/12/19 11:34:20;;;;;;;3.78;1.35;;;;;;;0.03;79.53;96101.28;4994264;28;20093;-60
2021/12/19 11:36:56;;;;;;;3.15;1.45;;;;;;;0.06;79.49;96106.03;4990921;28;20061;-58
2021/12/19 11:39:29;;;;;;;4.40;1.45;;;;;;;0.10;79.00;96100.66;4992174;28;20561;-59
2021/12/19 11:42:17;;;;;;;3.25;1.20;;;;;;;0.15;79.15;96090.28;4994261;28;20137;-58
2021/12/19 11:45:02;;;;;;;6.22;1.42;;;;;;;0.16;79.54;96102.78;4993902;28;20078;-60
2021/12/19 11:47:56;;;;;;;5.68;1.38;;;;;;;0.22;78.74;96095.94;4992775;28;20054;-60
2021/12/19 11:50:32;;;;;;;5.22;1.63;;;;;;;0.19;79.36;96104.84;4994449;28;20053;-60
2021/12/19 11:53:41;;;;;;;4.47;1.80;;;;;;;0.22;79.18;96098.66;4993513;28;20078;-60
2021/12/19 11:56:16;;;;;;;6.60;1.45;;;;;;;0.23;78.45;96091.28;4993878;28;20482;-59
2021/12/19 11:58:49;;;;;;;7.95;1.95;;;;;;;0.20;78.68;96092.75;4993676;28;20096;-61
2021/12/19 12:01:19;;;;;;;10.80;1.88;;;;;;;0.21;78.85;96086.16;4993602;28;20559;-61
2021/12/19 12:03:53;;;;;;;4.55;1.85;;;;;;;0.22;78.74;96090.47;4993979;28;20104;-63
2021/12/19 12:06:25;;;;;;;3.63;1.52;;;;;;;0.25;78.82;96089.78;4992513;28;20108;-59
2021/12/19 12:09:12;;;;;;;2.88;1.63;;;;;;;0.23;78.21;96097.50;4994077;28;20145;-61
2021/12/19 12:12:00;;;;;;;4.55;1.55;;;;;;;0.22;78.87;96090.47;4989746;28;20050;-61
2021/12/19 12:14:30;;;;;;;5.63;1.33;;;;;;;0.23;78.60;96092.03;4989213;28;20062;-61
2021/12/19 12:17:00;;;;;;;;;;;;;;;0.22;78.19;96089.66;4993103;28;20050;-61
2021/12/19 12:19:42;;;;;;;3.95;1.42;;;;;;;0.27;78.16;96086.69;4993038;28;20296;-64
2021/12/19 12:22:20;;;;;;;3.13;1.08;;;;;;;0.25;78.40;96084.31;4993443;28;20088;-64
2021/12/19 12:25:04;;;;;;;4.90;1.27;;;;;;;0.30;78.13;96080.50;4992245;28;20132;-65
2021/12/19 12:27:36;;;;;;;4.88;1.08;;;;;;;0.28;78.52;96077.34;4992941;28;20053;-66
2021/12/19 12:30:05;;;;;;;2.75;1.70;;;;;;;0.29;77.71;96079.72;4990311;28;20101;-66
2021/12/19 12:32:32;;;;;;;2.67;1.30;;;;;;;0.33;78.18;96086.09;4992788;28;20062;-66
2021/12/19 12:34:59;;;;;;;3.38;1.60;;;;;;;0.33;78.04;96077.88;4990023;28;20137;-64
2021/12/19 12:37:27;;;;;;;6.63;1.92;;;;;;;0.35;78.16;96083.78;4990972;28;20064;-65
2021/12/19 12:41:48;;;;;;;3.28;1.42;;;;;;;0.32;78.10;96081.75;4992304;28;20068;-65
2021/12/19 12:43:40;;;;;;;3.88;1.20;;;;;;;0.26;77.89;96085.09;4955050;28;20063;-65
2021/12/19 12:46:25;;;;;;;1.48;0.95;;;;;;;0.27;77.95;96086.69;4971295;28;20074;-66
2021/12/19 12:48:56;;;;;;;4.85;1.20;;;;;;;0.31;77.53;96077.44;4988651;28;20433;-66
2021/12/19 12:51:31;;;;;;;3.72;1.50;;;;;;;0.28;77.84;96078.13;4992920;28;20515;-66
2021/12/19 12:54:03;;;;;;;3.45;1.00;;;;;;;0.26;78.13;96082.38;4991958;28;20461;-66